Martin Miguel De Guemes International Airport
SASA : rendu visible

Aérodrome :











RETROUVEZ-NOUS SUR...

 
LOGIN :

S'inscrire | Disclaimer

   EN    FR    IT 

 









Légende :    VFR   VFR Marginal   IFR   IFR Intensif   IFR Très Intensif
Visi : 
Plafond : 
>= 8 km
>= 3000ft
5 à 8 km
1000 à 3000 ft
1500m à 5 km
500 à 1000 ft
800 à 1500m
200 à 500 ft
< 800m
< 200 ft
Symboles :   Orages  Brouillard  Fortes neiges  Fortes précipitations  Vent > 20 kt






- Altitude de l'aérodrome : 4088 ft
- Code IATA : SLA


SASA - Martin Miguel De Guemes International

DERNIER METAR :
  • 041000Z 00000KT 9999 FEW008 10/09 Q1014

METARs EXPIRÉS :
  • 040900Z 00000KT 9999 FEW008 10/09 Q1014
  • 040800Z 00000KT CAVOK 10/10 Q1014

TAF TAF SASA
Valide du 04 à 06h jusqu'au 05 à 06h UTC


040500Z 0406/0506 32005KT 9999 SCT025 TX20/0418Z TN10/0410Z
PROB40
TEMPO 0408/0411 VRB02KT 2000 BR BKN010
BECMG 0412/0415 05005KT 9999 BKN025



MET'MAP, la Météo Aéronautique d'un coup d'oeil ! - Copyright ORBIFLY Décembre 2007 - Disclaimer

ORBIFLY MET'MAP TEAM :

Programmation & Développement : Alexandra Zaïnal
Sur une idée originale de : Baudouin d'Aumeries
Assistance à la programmation : Marc-Olivier Méhu
Soutien technique & logistique : Manuel Goepfert

Contact : metmap@orbifly.com




SOURCES & CREDITS :

   NOAA       Earth
Advisory